»·PEaware :: N4306H KSNA-KBUR

N4306H :: KSNA-KBUR

FLIGHT INFORMATION

Flight Status: Arrived
Operator: Privately registered:
United States
More flights under this callsign
Pilot: Lauro R. (32390)
Aircraft: MOONEY M-20 201 202 205 220 ATS MSE
(M20P)
More flights by this aircraft type
Origin: KSNA John Wayne-Orange Co
United States
Destination: KBUR Bob Hope-Burbank
United States
More flights between these airports :: More routes between these airports
Route: SLI V23 POPPR SMO125R SMO SMO311R SILEX
File this flight plan on PilotEdge
Remarks:
Altitude:
(Current/Filed)
4,000ft
Speed:
(Current/Filed)
150kts
Departed: 12-Nov-20 11:17 AM
Arrived: 12-Nov-20 11:51 AM
Distance/Time
Traveled:
40nm/0:34
Distance/Time
To Go:
Arrived

Flight Plot

Page will automatically refresh every two minutes.


Map Options




Map Legend


Flown Route
Filed Route
Departure Airport
Arrival Airport
Navaid (VOR, NDB)
Fix

Horizontal Profiles

Position Reports

Time Latitude Longitude Heading Altitude Ground
Speed
12-Nov-20 10:58 33.671192 -117.868025 211 59ft 0kts
12-Nov-20 10:59 33.671192 -117.868025 211 59ft 0kts
12-Nov-20 11:00 33.671192 -117.868025 211 59ft 0kts
12-Nov-20 11:01 33.671192 -117.868025 211 59ft 0kts
12-Nov-20 11:02 33.671192 -117.868025 211 59ft 0kts
12-Nov-20 11:03 33.671192 -117.868025 211 59ft 0kts
12-Nov-20 11:04 33.671192 -117.868025 211 59ft 0kts
12-Nov-20 11:05 33.671192 -117.868025 211 59ft 0kts
12-Nov-20 11:08 33.671182 -117.868033 211 59ft 2kts
12-Nov-20 11:09 33.671081 -117.868192 300 59ft 0kts
12-Nov-20 11:10 33.671652 -117.868436 32 59ft 7kts
12-Nov-20 11:11 33.673792 -117.866673 27 59ft 19kts
12-Nov-20 11:12 33.677564 -117.864910 26 59ft 27kts
12-Nov-20 11:13 33.679521 -117.863651 28 59ft 0kts
12-Nov-20 11:14 33.679871 -117.863522 334 59ft 4kts
12-Nov-20 11:15 33.680058 -117.864120 240 59ft 11kts
12-Nov-20 11:16 33.662453 -117.879678 222 689ft 89kts
12-Nov-20 11:17 33.638996 -117.904886 221 1306ft 129kts
12-Nov-20 11:18 33.609685 -117.936171 221 1831ft 146kts
12-Nov-20 11:19 33.579320 -117.968557 223 2473ft 144kts
12-Nov-20 11:20 33.581030 -118.013500 280 3181ft 139kts
12-Nov-20 11:21 33.604290 -118.047194 321 3850ft 138kts
12-Nov-20 11:22 33.637642 -118.080101 320 3883ft 168kts
12-Nov-20 11:23 33.674806 -118.117577 320 3881ft 178kts
12-Nov-20 11:24 33.712807 -118.156054 320 3880ft 181kts
12-Nov-20 11:25 33.749396 -118.193278 320 3880ft 182kts
12-Nov-20 11:26 33.783590 -118.228072 320 3880ft 182kts
12-Nov-20 11:27 33.817852 -118.262924 320 3880ft 182kts
12-Nov-20 11:28 33.853632 -118.299191 320 3875ft 182kts
12-Nov-20 11:29 33.890977 -118.336638 320 3880ft 182kts
12-Nov-20 11:30 33.922602 -118.368467 320 3873ft 146kts
12-Nov-20 11:31 33.947738 -118.393740 320 3876ft 120kts
12-Nov-20 11:32 33.971062 -118.417207 321 3878ft 106kts
12-Nov-20 11:33 34.000433 -118.446708 320 3884ft 159kts
12-Nov-20 11:34 34.030575 -118.480033 311 3877ft 124kts
12-Nov-20 11:35 34.052586 -118.510993 311 3878ft 111kts
12-Nov-20 11:36 34.072610 -118.539135 311 3882ft 113kts
12-Nov-20 11:37 34.093577 -118.568581 311 3881ft 118kts
12-Nov-20 11:38 34.115218 -118.598967 311 3881ft 119kts
12-Nov-20 11:39 34.137007 -118.629558 311 3880ft 120kts
12-Nov-20 11:40 34.163524 -118.641591 29 3885ft 120kts
12-Nov-20 11:41 34.192458 -118.621633 30 3881ft 121kts
12-Nov-20 11:42 34.205570 -118.585016 73 3666ft 122kts
12-Nov-20 11:43 34.200517 -118.548104 94 3066ft 110kts
12-Nov-20 11:44 34.199572 -118.516457 91 2872ft 85kts
12-Nov-20 11:45 34.199310 -118.490705 91 2727ft 101kts
12-Nov-20 11:46 34.198937 -118.458411 91 2216ft 104kts
12-Nov-20 11:47 34.198595 -118.427666 91 1716ft 95kts
12-Nov-20 11:48 34.198327 -118.398494 90 1242ft 89kts
12-Nov-20 11:49 34.197998 -118.374222 91 879ft 68kts
12-Nov-20 11:50 34.197040 -118.360268 182 712ft 0kts
12-Nov-20 11:51 34.196230 -118.359089 188 709ft 24kts

Navigation Log

Ident Type
Flight plan parsing failed, navigation log unavailable